Flight Track Log - Related Links

Times and Time Zones

All times are in EDT time to prevent confusion due to time zone crossing. See the SWA714 flight status page for this flight to view local times or setup timezone preferences in your user account.

Time Position Orientation Groundspeed Altitude Reporting Facility
EDT Latitude Longitude Course Direction KTS MPH feet Rate Location/Type
Thu 12:27:00 PM 33.6781 -101.8314 24° Northeast 140 161 4,000  Level Fort Worth Center
Thu 12:28:06 PM 33.7206 -101.8086 24° Northeast 196 226 6,300 2,173 Climbing Fort Worth Center
Thu 12:29:07 PM 33.7236 -101.7211 88° East 284 327 8,600 2,607 Climbing Fort Worth Center
Thu 12:30:08 PM 33.7250 -101.6164 89° East 343 395 11,600 3,000 Climbing Fort Worth Center
Thu 12:31:03 PM 33.7308 -101.5019 86° East 379 436 14,400 3,183 Climbing Fort Worth Center
Thu 12:32:03 PM 33.7350 -101.3772 88° East 394 453 17,700 3,250 Climbing Fort Worth Center
Thu 12:33:03 PM 33.7397 -101.2250 88° East 405 466 20,900 2,800 Climbing Fort Worth Center
Thu 12:34:03 PM 33.7500 -101.0906 85° East 434 499 23,300 2,450 Climbing Fort Worth Center
Thu 12:35:03 PM 33.7547 -100.9208 88° East 455 524 25,800 1,850 Climbing Fort Worth Center
Thu 12:36:03 PM 33.7631 -100.7739 86° East 480 552 27,000 600 Climbing Fort Worth Center
Thu 12:37:03 PM 33.7672 -100.6067 88° East 486 559 27,000  Level Fort Worth Center
Thu 12:38:03 PM 33.7756 -100.4419 86° East 486 559 27,000 750 Level Fort Worth Center
Thu 12:39:03 PM 33.7794 -100.2797 88° East 491 565 28,500 1,600 Climbing Fort Worth Center
Thu 12:40:03 PM 33.7664 -100.1094 95° East 497 572 30,200 1,900 Climbing Fort Worth Center
Thu 12:41:03 PM 33.7494 -99.9342 97° East 508 585 32,300 1,700 Climbing Fort Worth Center
Thu 12:42:03 PM 33.7339 -99.7614 96° East 513 590 33,600 900 Climbing Fort Worth Center
Thu 12:44:03 PM 33.7006 -99.4033 96° East 531 611 35,000 367 Climbing Fort Worth Center
Thu 12:45:03 PM 33.6822 -99.2206 97° East 543 625 34,700 -1,750 Descending Fort Worth Center
Thu 12:46:03 PM 33.6639 -99.0356 97° East 548 631 31,500 -3,300 Descending Fort Worth Center
Thu 12:47:03 PM 33.6453 -98.8556 97° East 553 636 28,100 -3,350 Descending Fort Worth Center
Thu 12:48:03 PM 33.6283 -98.6833 97° East 536 617 24,800 -2,550 Descending Fort Worth Center
Thu 12:49:03 PM 33.6111 -98.5208 97° East 513 590 23,000 -1,800 Descending Fort Worth Center
Thu 12:50:03 PM 33.6397 -98.3592 78° East 465 535 21,200 -1,000 Descending Fort Worth Center
Thu 12:51:03 PM 33.6825 -98.2172 70° East 447 514 21,000 -600 Descending Fort Worth Center
Thu 12:52:03 PM 33.6561 -98.0897 104° East 403 464 20,000 -500 Descending Fort Worth Center
Thu 12:53:03 PM 33.5919 -97.9919 128° Southeast 372 428 20,000 -650 Level Fort Worth Center
Thu 12:54:03 PM 33.5378 -97.9094 128° Southeast 360 414 18,700 -1,800 Descending Fort Worth Center
Thu 12:55:03 PM 33.4694 -97.8094 129° Southeast 360 414 16,400 -2,067 Descending Fort Worth Center
Thu 12:57:03 PM 33.3531 -97.6322 128° Southeast 345 397 12,500 -1,767 Descending Fort Worth Center
Thu 12:58:03 PM 33.2967 -97.5500 129° Southeast 327 376 11,100 -750 Descending Fort Worth Center
Thu 12:59:03 PM 33.2403 -97.4756 132° Southeast 316 364 11,000 -50 Descending Fort Worth Center
Thu 01:00:03 PM 33.1842 -97.4086 135° Southeast 294 338 11,000  Level Fort Worth Center
Thu 01:01:03 PM 33.1256 -97.3414 136° Southeast 289 333 11,000  Level Fort Worth Center
Thu 01:02:03 PM 33.0672 -97.2772 137° Southeast 289 333 11,000  Level Fort Worth Center
Thu 01:03:03 PM 33.0128 -97.2078 133° Southeast 289 333 11,000 -100 Level Fort Worth Center
Thu 01:04:03 PM 32.9625 -97.1583 140° Southeast 281 323 10,800 -950 Descending Fort Worth Center
Thu 01:05:03 PM 32.9122 -97.0867 130° Southeast 255 293 9,100 -1,669 Descending Fort Worth Center
Thu 01:06:16 PM 32.8500 -97.0000 131° Southeast 270 311 7,100 -1,308 Descending Dallas / Fort Worth TRACON
Thu 01:07:16 PM 32.8000 -96.9500 140° Southeast 265 305 6,200 -895 Descending Dallas / Fort Worth TRACON
Thu 01:08:10 PM 32.7500 -96.8833 132° Southeast 255 293 5,400 -1,053 Descending Dallas / Fort Worth TRACON
Thu 01:09:10 PM 32.7000 -96.8333 140° Southeast 258 297 4,200 -942 Descending Dallas / Fort Worth TRACON
Thu 01:10:11 PM 32.6500 -96.7667 132° Southeast 246 283 3,500 -661 Descending Dallas / Fort Worth TRACON
Thu 01:11:17 PM 32.6833 -96.7333 40° Northeast 188 216 2,800 -524 Descending Dallas / Fort Worth TRACON
Thu 01:12:17 PM 32.7333 -96.7500 344° North 151 174 2,400 -200 Descending Dallas / Fort Worth TRACON
Thu 01:13:17 PM 32.7667 -96.7667 337° Northwest 131 151 2,400 -365 Level Dallas / Fort Worth TRACON
Thu 01:14:12 PM 32.7833 -96.8000 301° West 137 158 1,700 -694 Descending Dallas / Fort Worth TRACON
Thu 01:15:18 PM 32.8167 -96.8167 337° Northwest 121 139 1,000 -636 Descending Dallas / Fort Worth TRACON

Login

Don't have an account? Register now (free) for customized features, flight alerts, and more!